createdAt,value
2023-03-03T00:09:30.868Z,104.83
2023-03-03T00:19:41.211Z,105.57
2023-03-03T00:29:49.380Z,104.47
2023-03-03T00:39:54.256Z,110.37
2023-03-03T00:50:22.722Z,106.50
2023-03-03T01:00:27.555Z,108.03
2023-03-03T01:10:36.750Z,111.30
2023-03-03T01:20:42.638Z,111.63
2023-03-03T01:30:46.072Z,113.87
2023-03-03T01:40:56.637Z,100.20
2023-03-03T01:51:04.130Z,109.60
2023-03-03T02:01:15.570Z,115.87
2023-03-03T02:11:20.402Z,113.30
2023-03-03T02:21:27.843Z,110.17
2023-03-03T02:31:33.917Z,117.10
2023-03-03T02:41:46.304Z,112.17
2023-03-03T02:51:52.414Z,113.40
2023-03-03T03:01:56.264Z,109.43
2023-03-03T03:12:02.570Z,114.47
2023-03-03T03:22:09.126Z,110.37
2023-03-03T03:32:14.510Z,112.70
2023-03-03T03:42:18.271Z,109.17
2023-03-03T03:52:23.760Z,109.63
2023-03-03T04:02:27.758Z,111.53
2023-03-03T04:12:38.445Z,111.53
2023-03-03T04:22:46.322Z,111.47
2023-03-03T04:32:51.233Z,111.30
2023-03-03T04:42:58.148Z,111.83
2023-03-03T04:53:03.707Z,114.47
2023-03-03T05:03:08.179Z,112.60
2023-03-03T05:13:15.458Z,115.37
2023-03-03T05:23:19.236Z,114.20
2023-03-03T05:33:24.102Z,112.63
2023-03-03T05:43:28.320Z,121.77
2023-03-03T05:53:33.165Z,126.57
2023-03-03T06:03:36.638Z,125.93
2023-03-03T06:13:42.756Z,134.80
2023-03-03T06:23:46.238Z,141.20
2023-03-03T06:33:51.602Z,144.13
2023-03-03T06:43:55.295Z,143.57
2023-03-03T06:54:04.352Z,142.10
2023-03-03T07:04:20.343Z,159.90
2023-03-03T07:14:25.228Z,168.23
2023-03-03T07:24:31.052Z,198.77
2023-03-03T07:34:41.793Z,155.13
2023-03-03T07:44:46.926Z,147.50
2023-03-03T07:54:52.133Z,146.23
2023-03-03T08:04:56.111Z,148.90
2023-03-03T08:15:21.816Z,150.40
2023-03-03T08:25:25.418Z,155.03
2023-03-03T08:35:30.427Z,161.63
2023-03-03T08:45:34.307Z,151.87
2023-03-03T08:55:39.186Z,143.87
2023-03-03T09:05:42.961Z,149.67
2023-03-03T09:15:49.036Z,139.00
2023-03-03T09:25:53.566Z,145.73
2023-03-03T09:36:12.799Z,151.77
2023-03-03T09:46:24.032Z,149.27
2023-03-03T09:56:35.808Z,186.77
2023-03-03T10:06:45.168Z,156.03
2023-03-03T10:17:07.608Z,154.43
2023-03-03T10:27:36.070Z,157.27
2023-03-03T10:37:52.410Z,148.33
2023-03-03T10:48:24.871Z,147.80
2023-03-03T10:58:48.081Z,151.37
2023-03-03T11:08:57.599Z,170.03
2023-03-03T11:19:30.901Z,171.50
2023-03-03T11:29:51.222Z,176.93
2023-03-03T11:40:02.834Z,167.43
2023-03-03T11:50:14.697Z,158.77
2023-03-03T12:00:30.769Z,155.60
2023-03-03T12:10:40.477Z,146.70
2023-03-03T12:21:02.619Z,145.30
2023-03-03T12:31:31.026Z,136.13
2023-03-03T12:41:41.151Z,127.13
2023-03-03T12:52:08.744Z,108.30
2023-03-03T13:02:44.579Z,116.63
2023-03-03T13:12:54.679Z,117.97
2023-03-03T13:23:09.193Z,113.83
2023-03-03T13:33:18.682Z,107.80
2023-03-03T13:43:28.313Z,110.27
2023-03-03T13:53:45.425Z,109.30
2023-03-03T14:04:10.359Z,103.73
2023-03-03T14:14:31.204Z,108.20
2023-03-03T14:25:01.754Z,103.73
2023-03-03T14:35:20.500Z,98.90
2023-03-03T14:45:36.223Z,99.37
2023-03-03T14:55:43.006Z,99.80
2023-03-03T15:05:53.058Z,101.77
2023-03-03T15:16:16.219Z,96.73
2023-03-03T15:26:30.489Z,97.60
2023-03-03T15:36:41.664Z,98.90
2023-03-03T15:47:16.499Z,97.30
2023-03-03T15:57:30.859Z,97.57
2023-03-03T16:07:49.964Z,108.27
2023-03-03T16:18:03.075Z,111.87
2023-03-03T16:28:17.267Z,99.30
2023-03-03T16:38:29.842Z,99.60
2023-03-03T16:48:44.636Z,97.53
2023-03-03T16:59:05.654Z,93.93
2023-03-03T17:09:39.771Z,97.20
2023-03-03T17:19:57.428Z,100.10
2023-03-03T17:30:13.185Z,96.47
2023-03-03T17:40:29.964Z,98.00
2023-03-03T17:50:56.047Z,101.03
2023-03-03T18:01:13.494Z,99.77
2023-03-03T18:11:42.150Z,96.20
2023-03-03T18:21:55.954Z,98.10
2023-03-03T18:32:19.911Z,97.03
2023-03-03T18:42:41.822Z,97.43
2023-03-03T18:53:15.689Z,92.93
2023-03-03T19:03:32.346Z,93.83
2023-03-03T19:13:51.993Z,96.20
2023-03-03T19:23:59.977Z,93.30
2023-03-03T19:34:13.183Z,94.10
2023-03-03T19:44:41.496Z,97.13
2023-03-03T19:55:03.750Z,93.03
2023-03-03T20:05:22.261Z,95.93
2023-03-03T20:15:38.922Z,95.80
2023-03-03T20:25:47.870Z,96.37
2023-03-03T20:36:08.972Z,99.50
2023-03-03T20:46:23.401Z,91.60
2023-03-03T20:56:37.589Z,93.07
2023-03-03T21:06:41.506Z,93.40
2023-03-03T21:16:46.460Z,95.30
2023-03-03T21:26:55.665Z,90.33
2023-03-03T21:37:02.800Z,93.93
2023-03-03T21:47:08.842Z,95.17
2023-03-03T21:57:14.388Z,96.30
2023-03-03T22:07:18.099Z,99.77
2023-03-03T22:17:25.491Z,98.43
2023-03-03T22:27:28.993Z,101.03
2023-03-03T22:37:33.820Z,101.03
2023-03-03T22:47:37.270Z,99.00
2023-03-03T22:57:42.300Z,95.00
2023-03-03T23:07:45.708Z,96.60
2023-03-03T23:17:50.915Z,95.77
2023-03-03T23:27:54.966Z,98.23
2023-03-03T23:37:59.771Z,95.73
2023-03-03T23:48:03.329Z,93.40
2023-03-03T23:58:08.227Z,84.93
